• Join FlightAware (Why Join?)
  • Login
  • US Flag 
01:51AM EDT


 

Airport Tracker/Info


-or-


 

Live Flight TrackerFlight Track Log ✈ CSN6819 ✈ 10-Apr-2014 ✈ ZWWW / URC - ZWTN / HTN

Flight Track Log - Related Links

Times and Time Zones

All times are in EDT time to prevent confusion due to time zone crossing. See the CSN6819 flight status page for this flight to view local times or setup timezone preferences in your user account.

Time Position Orientation Groundspeed Altitude Reporting Facility
EDT Latitude Longitude Course Direction KTS MPH feet Rate Location/Type
09:36AM 43.3121 86.7239 223° Southwest  Level Estimated
09:37AM 43.2267 86.6179 222° Southwest  Level Estimated
09:38AM 43.1412 86.5122 222° Southwest  Level Estimated
09:39AM 43.0556 86.4068 222° Southwest  Level Estimated
09:40AM 42.9699 86.3017 222° Southwest  Level Estimated
09:41AM 42.8841 86.1969 222° Southwest  Level Estimated
09:42AM 42.7982 86.0924 222° Southwest  Level Estimated
09:43AM 42.7122 85.9882 222° Southwest  Level Estimated
09:44AM 42.6262 85.8842 222° Southwest  Level Estimated
09:45AM 42.5400 85.7806 222° Southwest  Level Estimated
09:46AM 42.4537 85.6772 221° Southwest  Level Estimated
09:47AM 42.3674 85.5741 221° Southwest  Level Estimated
09:48AM 42.2809 85.4713 221° Southwest  Level Estimated
09:49AM 42.1944 85.3688 221° Southwest  Level Estimated
09:50AM 42.1078 85.2666 221° Southwest  Level Estimated
09:51AM 42.0211 85.1646 221° Southwest  Level Estimated
09:52AM 41.9343 85.0629 221° Southwest  Level Estimated
09:53AM 41.8474 84.9615 221° Southwest  Level Estimated
09:54AM 41.7604 84.8604 221° Southwest  Level Estimated
09:55AM 41.6733 84.7595 221° Southwest  Level Estimated
09:56AM 41.5862 84.6590 221° Southwest  Level Estimated
09:57AM 41.4989 84.5586 221° Southwest  Level Estimated
09:58AM 41.4116 84.4586 221° Southwest  Level Estimated
09:59AM 41.3241 84.3588 221° Southwest  Level Estimated
10:00AM 41.2366 84.2593 221° Southwest  Level Estimated
10:01AM 41.1490 84.1601 220° Southwest  Level Estimated
10:02AM 41.0614 84.0611 220° Southwest  Level Estimated
10:03AM 40.9736 83.9624 220° Southwest  Level Estimated
10:04AM 40.8857 83.8640 220° Southwest  Level Estimated
10:05AM 40.7978 83.7658 220° Southwest  Level Estimated
10:06AM 40.7098 83.6678 220° Southwest  Level Estimated
10:07AM 40.6217 83.5702 220° Southwest  Level Estimated
10:08AM 40.5335 83.4728 220° Southwest  Level Estimated
10:09AM 40.4453 83.3756 220° Southwest  Level Estimated
10:10AM 40.3569 83.2787 220° Southwest  Level Estimated
10:11AM 40.2685 83.1821 220° Southwest  Level Estimated
10:12AM 40.1800 83.0857 220° Southwest  Level Estimated
10:13AM 40.0914 82.9895 220° Southwest  Level Estimated
10:14AM 40.0028 82.8936 220° Southwest  Level Estimated
10:15AM 39.9140 82.7980 220° Southwest  Level Estimated
10:16AM 39.8252 82.7026 220° Southwest  Level Estimated
10:17AM 39.7363 82.6075 219° Southwest  Level Estimated
10:18AM 39.6473 82.5126 219° Southwest  Level Estimated
10:19AM 39.5583 82.4179 219° Southwest  Level Estimated
10:20AM 39.4692 82.3235 219° Southwest  Level Estimated
10:21AM 39.3800 82.2293 219° Southwest  Level Estimated
10:22AM 39.2907 82.1354 219° Southwest  Level Estimated
10:23AM 39.2013 82.0417 219° Southwest  Level Estimated
10:24AM 39.1119 81.9482 219° Southwest  Level Estimated
10:25AM 39.0224 81.8550 219° Southwest  Level Estimated
10:26AM 38.9328 81.7620 219° Southwest  Level Estimated
10:27AM 38.8432 81.6693 219° Southwest  Level Estimated
10:28AM 38.7534 81.5768 219° Southwest  Level Estimated
10:29AM 38.6636 81.4845 219° Southwest  Level Estimated
10:30AM 38.5738 81.3924 219° Southwest  Level Estimated
10:31AM 38.4838 81.3006 219° Southwest  Level Estimated
10:32AM 38.3938 81.2090 219° Southwest  Level Estimated
10:33AM 38.3037 81.1176 219° Southwest  Level Estimated
10:34AM 38.2136 81.0265 218° Southwest  Level Estimated
10:35AM 38.1233 80.9356 218° Southwest  Level Estimated
10:36AM 38.0331 80.8449 218° Southwest  Level Estimated
10:37AM 37.9427 80.7544 218° Southwest  Level Estimated
10:38AM 37.8523 80.6642 218° Southwest  Level Estimated
10:39AM 37.7618 80.5742 218° Southwest  Level Estimated
10:40AM 37.6712 80.4844 218° Southwest  Level Estimated
10:41AM 37.5806 80.3948 218° Southwest  Level Estimated
10:42AM 37.4898 80.3054 218° Southwest  Level Estimated
10:43AM 37.3991 80.2163 218° Southwest  Level Estimated
10:44AM 37.3082 80.1273 218° Southwest  Level Estimated
10:45AM 37.2173 80.0386 218° Southwest  Level Estimated
10:46AM 37.1264 79.9501 218° Southwest  Level Estimated
10:47AM 37.0385 79.8649 218° Southwest  Level Estimated
10:48AM 37.0385 79.8649 North  Level Estimated
10:49AM 37.0385 79.8649 North  Level Estimated
10:50AM 37.0385 79.8649 North  Level Estimated
10:51AM 37.0385 79.8649 North  Level Estimated
10:52AM 37.0385 79.8649 North  Level Estimated
10:53AM 37.0385 79.8649 North  Level Estimated
10:54AM 37.0385 79.8649 North  Level Estimated
10:55AM 37.0385 79.8649 North  Level Estimated
10:56AM 37.0385 79.8649 North  Level Estimated
10:57AM 37.0385 79.8649 North  Level Estimated
10:58AM 37.0385 79.8649 North  Level Estimated
10:59AM 37.0385 79.8649 North  Level Estimated
11:00AM 37.0385 79.8649 North  Level Estimated